createdAt,value
2023-05-05T00:00:05.895Z,69.44
2023-05-05T00:02:33.540Z,68.90
2023-05-05T00:05:00.992Z,68.60
2023-05-05T00:07:29.738Z,68.36
2023-05-05T00:09:57.153Z,70.79
2023-05-05T00:12:24.630Z,69.59
2023-05-05T00:14:52.009Z,68.59
2023-05-05T00:17:19.499Z,69.62
2023-05-05T00:19:46.971Z,68.47
2023-05-05T00:22:14.344Z,67.68
2023-05-05T00:24:43.061Z,68.29
2023-05-05T00:27:11.421Z,64.98
2023-05-05T00:29:38.957Z,65.58
2023-05-05T00:32:06.521Z,66.50
2023-05-05T00:34:33.975Z,67.01
2023-05-05T00:37:01.618Z,66.64
2023-05-05T00:39:29.502Z,67.58
2023-05-05T00:41:59.388Z,65.59
2023-05-05T00:44:38.433Z,66.03
2023-05-05T00:47:06.678Z,68.92
2023-05-05T00:49:34.471Z,67.83
2023-05-05T00:52:02.194Z,67.45
2023-05-05T00:54:29.726Z,68.44
2023-05-05T00:56:58.710Z,68.22
2023-05-05T00:59:26.996Z,67.79
2023-05-05T01:01:54.450Z,66.30
2023-05-05T01:04:22.063Z,66.34
2023-05-05T01:06:55.013Z,67.66
2023-05-05T01:09:33.307Z,65.80
2023-05-05T01:12:11.354Z,66.42
2023-05-05T01:14:42.017Z,66.67
2023-05-05T01:17:17.081Z,68.26
2023-05-05T01:20:09.405Z,67.38
2023-05-05T01:22:40.367Z,66.35
2023-05-05T01:25:31.643Z,67.34
2023-05-05T01:28:20.320Z,66.51
2023-05-05T01:31:07.002Z,68.26
2023-05-05T01:33:42.872Z,64.84
2023-05-05T01:36:14.192Z,65.29
2023-05-05T01:38:45.921Z,66.31
2023-05-05T01:41:17.853Z,68.00
2023-05-05T01:43:48.309Z,68.51
2023-05-05T01:46:16.919Z,66.21
2023-05-05T01:48:47.378Z,66.29
2023-05-05T01:51:17.978Z,66.24
2023-05-05T01:53:47.093Z,66.79
2023-05-05T01:56:16.356Z,67.48
2023-05-05T01:58:46.068Z,69.56
2023-05-05T02:01:14.751Z,67.62
2023-05-05T02:03:44.826Z,69.51
2023-05-05T02:06:16.201Z,68.31
2023-05-05T02:08:44.708Z,67.86
2023-05-05T02:11:13.490Z,69.32
2023-05-05T02:13:43.246Z,70.09
2023-05-05T02:16:11.874Z,68.91
2023-05-05T02:18:39.397Z,67.06
2023-05-05T02:21:08.188Z,68.24
2023-05-05T02:23:37.104Z,69.21
2023-05-05T02:26:08.093Z,71.26
2023-05-05T02:28:42.131Z,69.50
2023-05-05T02:31:11.799Z,69.35
2023-05-05T02:33:41.340Z,68.10
2023-05-05T02:36:13.352Z,69.29
2023-05-05T02:38:45.882Z,67.50
2023-05-05T02:41:17.628Z,69.19
2023-05-05T02:43:47.141Z,68.50
2023-05-05T02:46:14.593Z,68.42
2023-05-05T02:48:42.049Z,68.35
2023-05-05T02:51:09.460Z,68.53
2023-05-05T02:53:37.089Z,67.95
2023-05-05T02:56:15.907Z,67.83
2023-05-05T02:58:49.445Z,68.29
2023-05-05T03:01:28.986Z,68.97
2023-05-05T03:04:05.519Z,68.35
2023-05-05T03:06:40.061Z,66.87
2023-05-05T03:09:10.630Z,69.75
2023-05-05T03:11:43.067Z,68.40
2023-05-05T03:14:12.835Z,68.51
2023-05-05T03:16:42.715Z,70.07
2023-05-05T03:19:12.556Z,69.45
2023-05-05T03:21:40.429Z,68.82
2023-05-05T03:24:16.937Z,68.98
2023-05-05T03:26:47.553Z,69.14
2023-05-05T03:29:16.098Z,69.45
2023-05-05T03:31:43.643Z,68.02
2023-05-05T03:34:11.288Z,69.40
2023-05-05T03:36:39.237Z,67.72
2023-05-05T03:39:06.678Z,66.30
2023-05-05T03:41:34.167Z,67.77
2023-05-05T03:44:02.906Z,69.00
2023-05-05T03:46:30.304Z,69.57
2023-05-05T03:48:57.814Z,68.31
2023-05-05T03:51:25.266Z,70.28
2023-05-05T03:53:52.654Z,67.94
2023-05-05T03:56:20.084Z,68.43
2023-05-05T03:58:47.532Z,66.69
2023-05-05T04:01:16.258Z,68.79
2023-05-05T04:03:43.738Z,69.45
2023-05-05T04:06:11.486Z,69.06
2023-05-05T04:08:38.909Z,68.08
2023-05-05T04:11:06.409Z,68.49
2023-05-05T04:13:33.816Z,68.86
2023-05-05T04:16:01.252Z,68.29
2023-05-05T04:18:30.011Z,69.72
2023-05-05T04:20:57.397Z,68.33
2023-05-05T04:23:24.810Z,70.02
2023-05-05T04:25:52.230Z,68.84
2023-05-05T04:28:21.598Z,68.52
2023-05-05T04:30:49.477Z,67.56
2023-05-05T04:33:16.885Z,66.35
2023-05-05T04:35:45.653Z,67.80
2023-05-05T04:38:13.031Z,64.61
2023-05-05T04:40:41.137Z,65.76
2023-05-05T04:43:08.565Z,64.01
2023-05-05T04:45:36.024Z,64.56
2023-05-05T04:48:05.088Z,63.60
2023-05-05T04:50:32.646Z,63.08
2023-05-05T04:53:01.378Z,62.88
2023-05-05T04:55:29.276Z,64.11
2023-05-05T04:57:56.744Z,65.14
2023-05-05T05:00:24.297Z,64.79
2023-05-05T05:02:52.425Z,63.89
2023-05-05T05:05:20.091Z,62.73
2023-05-05T05:07:47.461Z,65.01
2023-05-05T05:10:16.230Z,63.17
2023-05-05T05:12:43.674Z,63.94
2023-05-05T05:15:11.663Z,65.55
2023-05-05T05:17:39.090Z,64.55
2023-05-05T05:20:08.365Z,64.36
2023-05-05T05:22:38.288Z,61.65
2023-05-05T05:25:06.398Z,61.45
2023-05-05T05:27:35.204Z,64.59
2023-05-05T05:30:03.070Z,63.81
2023-05-05T05:32:30.749Z,62.93
2023-05-05T05:34:58.177Z,60.10
2023-05-05T05:37:29.078Z,59.35
2023-05-05T05:39:56.851Z,57.82
2023-05-05T05:42:24.277Z,57.06
2023-05-05T05:44:53.068Z,54.69
2023-05-05T05:47:20.471Z,59.56
2023-05-05T05:49:47.882Z,57.53
2023-05-05T05:52:15.338Z,57.18
2023-05-05T05:54:42.757Z,55.47
2023-05-05T05:57:10.320Z,55.73
2023-05-05T05:59:37.999Z,56.97
2023-05-05T06:02:07.146Z,54.54
2023-05-05T06:04:34.638Z,55.39
2023-05-05T06:07:02.224Z,54.76
2023-05-05T06:09:29.752Z,54.02
2023-05-05T06:11:57.152Z,55.46
2023-05-05T06:14:24.682Z,56.29
2023-05-05T06:16:52.780Z,54.94
2023-05-05T06:19:21.596Z,55.98
2023-05-05T06:21:49.089Z,54.68
2023-05-05T06:24:16.513Z,56.75
2023-05-05T06:26:43.904Z,57.84
2023-05-05T06:29:12.342Z,56.72
2023-05-05T06:31:40.016Z,53.56
2023-05-05T06:34:07.590Z,52.82
2023-05-05T06:36:36.489Z,54.75
2023-05-05T06:39:03.940Z,56.95
2023-05-05T06:41:31.360Z,57.08
2023-05-05T06:43:58.801Z,56.21
2023-05-05T06:46:26.364Z,55.28
2023-05-05T06:48:53.895Z,59.93
2023-05-05T06:51:22.978Z,55.06
2023-05-05T06:53:51.994Z,57.36
2023-05-05T06:56:19.502Z,56.71
2023-05-05T06:58:46.905Z,54.71
2023-05-05T07:01:14.653Z,54.95
2023-05-05T07:03:42.125Z,54.02
2023-05-05T07:06:09.692Z,56.66
2023-05-05T07:08:37.091Z,56.12
2023-05-05T07:11:05.982Z,55.88
2023-05-05T07:13:33.513Z,57.30
2023-05-05T07:16:01.188Z,56.14
2023-05-05T07:18:28.614Z,55.99
2023-05-05T07:20:56.002Z,57.11
2023-05-05T07:23:23.409Z,56.26
2023-05-05T07:25:50.837Z,54.39
2023-05-05T07:28:19.655Z,53.98
2023-05-05T07:30:47.115Z,55.16
2023-05-05T07:33:14.639Z,56.10
2023-05-05T07:35:42.049Z,56.29
2023-05-05T07:38:10.944Z,56.40
2023-05-05T07:40:38.443Z,56.15
2023-05-05T07:43:05.998Z,53.46
2023-05-05T07:45:35.040Z,55.29
2023-05-05T07:48:02.759Z,56.92
2023-05-05T07:50:30.427Z,56.33
2023-05-05T07:53:10.572Z,56.55
2023-05-05T07:55:41.858Z,55.34
2023-05-05T07:58:10.851Z,55.45
2023-05-05T08:00:40.057Z,55.45
2023-05-05T08:03:11.304Z,54.63
2023-05-05T08:05:39.409Z,55.75
2023-05-05T08:08:07.057Z,56.43
2023-05-05T08:10:34.538Z,55.32
2023-05-05T08:13:02.082Z,56.07
2023-05-05T08:15:29.602Z,54.61
2023-05-05T08:17:58.328Z,54.33
2023-05-05T08:20:29.241Z,54.37
2023-05-05T08:22:56.670Z,55.19
2023-05-05T08:25:24.590Z,55.29
2023-05-05T08:27:51.958Z,56.35
2023-05-05T08:30:20.859Z,54.08
2023-05-05T08:32:48.539Z,54.72
2023-05-05T08:35:17.485Z,54.51
2023-05-05T08:37:44.980Z,54.50
2023-05-05T08:40:14.702Z,54.67
2023-05-05T08:42:42.580Z,54.10
2023-05-05T08:45:11.525Z,54.41
2023-05-05T08:47:40.359Z,53.08
2023-05-05T08:50:11.813Z,53.37
2023-05-05T08:52:44.000Z,54.14
2023-05-05T08:55:16.126Z,53.04
2023-05-05T08:57:50.544Z,52.49
2023-05-05T09:00:19.548Z,51.37
2023-05-05T09:02:48.169Z,51.27
2023-05-05T09:05:16.560Z,52.84
2023-05-05T09:07:46.710Z,52.79
2023-05-05T09:10:14.322Z,52.36
2023-05-05T09:12:42.297Z,51.61
2023-05-05T09:15:11.553Z,51.44
2023-05-05T09:17:39.705Z,52.64
2023-05-05T09:20:09.077Z,52.43
2023-05-05T09:22:37.987Z,51.72
2023-05-05T09:25:08.444Z,50.68
2023-05-05T09:27:40.810Z,51.25
2023-05-05T09:30:09.905Z,51.30
2023-05-05T09:32:48.879Z,51.22
2023-05-05T09:35:17.223Z,51.01
2023-05-05T09:37:45.218Z,49.79
2023-05-05T09:40:15.801Z,48.97
2023-05-05T09:42:44.566Z,49.34
2023-05-05T09:45:27.297Z,51.58
2023-05-05T09:47:59.773Z,50.64
2023-05-05T09:50:30.509Z,50.25
2023-05-05T09:52:59.814Z,48.71
2023-05-05T09:55:30.843Z,48.85
2023-05-05T09:57:58.397Z,49.53
2023-05-05T10:00:38.923Z,50.61
2023-05-05T10:03:06.788Z,51.64
2023-05-05T10:05:34.258Z,50.65
2023-05-05T10:08:13.415Z,48.49
2023-05-05T10:10:48.616Z,49.15
2023-05-05T10:13:19.000Z,48.58
2023-05-05T10:15:48.171Z,48.84
2023-05-05T10:18:19.851Z,47.95
2023-05-05T10:20:51.207Z,47.16
2023-05-05T10:23:21.256Z,48.69
2023-05-05T10:25:59.947Z,48.49
2023-05-05T10:28:33.434Z,48.34
2023-05-05T10:31:04.245Z,47.00
2023-05-05T10:33:52.973Z,47.22
2023-05-05T10:36:21.496Z,48.44
2023-05-05T10:38:51.055Z,48.09
2023-05-05T10:41:21.472Z,48.55
2023-05-05T10:43:49.270Z,47.98
2023-05-05T10:46:16.925Z,46.79
2023-05-05T10:48:56.848Z,48.17
2023-05-05T10:51:40.048Z,48.25
2023-05-05T10:54:14.986Z,46.44
2023-05-05T10:56:44.284Z,46.56
2023-05-05T10:59:40.219Z,47.38
2023-05-05T11:02:19.837Z,48.14
2023-05-05T11:05:04.468Z,46.63
2023-05-05T11:07:32.837Z,46.77
2023-05-05T11:10:02.245Z,46.70
2023-05-05T11:12:31.840Z,47.21
2023-05-05T11:15:37.364Z,48.34
2023-05-05T11:18:07.503Z,47.53
2023-05-05T11:21:03.792Z,47.10
2023-05-05T11:23:31.819Z,46.26
2023-05-05T11:25:59.230Z,46.30
2023-05-05T11:28:30.962Z,45.60
2023-05-05T11:31:18.204Z,46.96
2023-05-05T11:33:46.117Z,47.04
2023-05-05T11:36:15.031Z,46.31
2023-05-05T11:38:53.639Z,45.42
2023-05-05T11:41:34.198Z,45.35
2023-05-05T11:44:13.968Z,46.42
2023-05-05T11:46:42.656Z,46.31
2023-05-05T11:49:10.181Z,46.19
2023-05-05T11:51:37.719Z,46.12
2023-05-05T11:54:05.701Z,46.59
2023-05-05T11:56:33.132Z,46.43
2023-05-05T11:59:09.684Z,46.56
2023-05-05T12:01:40.856Z,46.09
2023-05-05T12:04:09.347Z,45.65
2023-05-05T12:06:36.949Z,44.47
2023-05-05T12:09:04.908Z,45.70
2023-05-05T12:11:32.339Z,45.54
2023-05-05T12:14:10.284Z,44.70
2023-05-05T12:16:39.371Z,45.66
2023-05-05T12:19:07.955Z,44.78
2023-05-05T12:21:36.251Z,44.97
2023-05-05T12:24:03.721Z,45.05
2023-05-05T12:26:32.384Z,44.34
2023-05-05T12:29:01.197Z,44.85
2023-05-05T12:31:35.811Z,44.78
2023-05-05T12:34:06.236Z,45.34
2023-05-05T12:36:34.622Z,46.09
2023-05-05T12:39:02.543Z,46.00
2023-05-05T12:41:29.980Z,47.05
2023-05-05T12:43:58.227Z,47.64
2023-05-05T12:46:26.458Z,47.71
2023-05-05T12:49:01.528Z,47.92
2023-05-05T12:51:31.320Z,47.48
2023-05-05T12:54:03.606Z,47.99
2023-05-05T12:56:36.539Z,47.34
2023-05-05T12:59:05.373Z,47.39
2023-05-05T13:01:33.347Z,46.61
2023-05-05T13:04:08.399Z,47.42
2023-05-05T13:06:37.721Z,46.98
2023-05-05T13:09:05.874Z,47.32
2023-05-05T13:11:36.223Z,48.21
2023-05-05T13:14:04.103Z,48.05
2023-05-05T13:16:31.552Z,49.06
2023-05-05T13:18:58.955Z,49.71
2023-05-05T13:21:26.464Z,48.37
2023-05-05T13:24:01.583Z,48.24
2023-05-05T13:26:40.445Z,46.19
2023-05-05T13:29:07.833Z,46.33
2023-05-05T13:31:35.489Z,45.87
2023-05-05T13:34:03.882Z,46.52
2023-05-05T13:36:31.359Z,46.44
2023-05-05T13:39:00.113Z,47.17
2023-05-05T13:41:27.638Z,47.84
2023-05-05T13:43:55.047Z,47.95
2023-05-05T13:46:22.591Z,47.34
2023-05-05T13:48:52.471Z,46.81
2023-05-05T13:51:23.543Z,46.88
2023-05-05T13:53:50.937Z,47.00
2023-05-05T13:56:20.023Z,47.92
2023-05-05T13:58:47.434Z,47.48
2023-05-05T14:01:14.894Z,47.04
2023-05-05T14:03:42.352Z,47.41
2023-05-05T14:06:09.938Z,47.80
2023-05-05T14:08:37.597Z,47.21
2023-05-05T14:11:05.100Z,47.44
2023-05-05T14:13:33.862Z,47.31
2023-05-05T14:16:01.338Z,46.94
2023-05-05T14:18:29.036Z,46.00
2023-05-05T14:20:56.440Z,45.25
2023-05-05T14:23:23.967Z,44.51
2023-05-05T14:25:51.385Z,43.97
2023-05-05T14:28:18.840Z,45.43
2023-05-05T14:30:47.547Z,47.11
2023-05-05T14:33:15.038Z,47.33
2023-05-05T14:35:42.596Z,47.54
2023-05-05T14:38:10.108Z,47.52
2023-05-05T14:40:37.560Z,47.68
2023-05-05T14:43:04.968Z,47.33
2023-05-05T14:45:32.585Z,46.59
2023-05-05T14:48:01.394Z,46.91
2023-05-05T14:50:28.860Z,46.25
2023-05-05T14:52:56.282Z,46.90
2023-05-05T14:55:24.915Z,46.46
2023-05-05T14:57:52.507Z,46.76
2023-05-05T15:00:20.397Z,46.82
2023-05-05T15:02:48.988Z,47.04
2023-05-05T15:05:17.810Z,46.88
2023-05-05T15:07:45.269Z,47.11
2023-05-05T15:10:12.859Z,46.59
2023-05-05T15:12:40.661Z,45.69
2023-05-05T15:15:09.509Z,46.29
2023-05-05T15:17:38.629Z,46.44
2023-05-05T15:20:07.495Z,47.27
2023-05-05T15:22:36.319Z,47.01
2023-05-05T15:25:03.739Z,47.33
2023-05-05T15:27:31.748Z,46.44
2023-05-05T15:29:59.197Z,45.50
2023-05-05T15:32:26.564Z,45.57
2023-05-05T15:34:55.091Z,46.79
2023-05-05T15:37:22.525Z,47.42
2023-05-05T15:39:51.242Z,47.90
2023-05-05T15:42:18.668Z,47.86
2023-05-05T15:44:46.082Z,48.34
2023-05-05T15:47:13.792Z,48.23
2023-05-05T15:49:41.210Z,48.73
2023-05-05T15:52:08.741Z,48.59
2023-05-05T15:54:36.189Z,48.37
2023-05-05T15:57:04.983Z,48.60
2023-05-05T15:59:32.629Z,48.77
2023-05-05T16:02:00.219Z,48.96
2023-05-05T16:04:27.707Z,48.73
2023-05-05T16:06:56.126Z,48.07
2023-05-05T16:09:23.522Z,49.02
2023-05-05T16:11:51.056Z,49.17
2023-05-05T16:14:19.762Z,49.70
2023-05-05T16:16:47.288Z,49.62
2023-05-05T16:19:14.780Z,49.26
2023-05-05T16:21:42.188Z,49.72
2023-05-05T16:24:09.735Z,49.87
2023-05-05T16:26:37.557Z,50.03
2023-05-05T16:29:04.981Z,50.30
2023-05-05T16:31:34.027Z,50.81
2023-05-05T16:34:01.550Z,50.35
2023-05-05T16:36:29.299Z,50.39
2023-05-05T16:38:57.182Z,50.18
2023-05-05T16:41:25.888Z,49.32
2023-05-05T16:43:53.562Z,50.85
2023-05-05T16:46:20.984Z,50.18
2023-05-05T16:48:49.774Z,50.73
2023-05-05T16:51:17.182Z,51.08
2023-05-05T16:53:44.611Z,51.34
2023-05-05T16:56:12.667Z,51.66
2023-05-05T16:58:40.360Z,51.24
2023-05-05T17:01:07.896Z,51.34
2023-05-05T17:03:35.830Z,51.56
2023-05-05T17:06:04.975Z,51.65
2023-05-05T17:08:32.430Z,51.71
2023-05-05T17:10:59.876Z,52.01
2023-05-05T17:13:27.310Z,52.52
2023-05-05T17:15:54.821Z,52.56
2023-05-05T17:18:25.614Z,52.34
2023-05-05T17:20:53.102Z,50.95
2023-05-05T17:23:22.066Z,51.42
2023-05-05T17:25:49.495Z,51.44
2023-05-05T17:28:17.507Z,51.40
2023-05-05T17:30:45.178Z,52.84
2023-05-05T17:33:12.653Z,53.15
2023-05-05T17:35:40.067Z,52.59
2023-05-05T17:38:07.509Z,53.06
2023-05-05T17:40:36.216Z,52.82
2023-05-05T17:43:03.612Z,53.72
2023-05-05T17:45:31.340Z,53.66
2023-05-05T17:47:58.884Z,53.06
2023-05-05T17:50:26.409Z,54.71
2023-05-05T17:52:53.817Z,53.38
2023-05-05T17:55:21.369Z,54.88
2023-05-05T17:57:50.228Z,56.38
2023-05-05T18:00:18.281Z,55.59
2023-05-05T18:02:46.203Z,55.51
2023-05-05T18:05:14.666Z,56.48
2023-05-05T18:07:42.184Z,57.04
2023-05-05T18:10:11.642Z,56.49
2023-05-05T18:12:39.145Z,57.30
2023-05-05T18:15:09.794Z,56.97
2023-05-05T18:17:37.516Z,57.43
2023-05-05T18:20:06.916Z,57.56
2023-05-05T18:22:34.530Z,56.98
2023-05-05T18:25:01.933Z,57.03
2023-05-05T18:27:32.365Z,58.20
2023-05-05T18:29:59.748Z,57.36
2023-05-05T18:32:28.659Z,57.21
2023-05-05T18:34:56.128Z,58.14
2023-05-05T18:37:23.510Z,58.27
2023-05-05T18:39:50.893Z,57.95
2023-05-05T18:42:18.281Z,58.20
2023-05-05T18:44:45.744Z,58.37
2023-05-05T18:47:13.453Z,57.63
2023-05-05T18:49:42.161Z,58.60
2023-05-05T18:52:09.598Z,58.85
2023-05-05T18:54:37.935Z,57.69
2023-05-05T18:57:05.497Z,57.11
2023-05-05T18:59:32.904Z,58.85
2023-05-05T19:02:00.482Z,59.48
2023-05-05T19:04:31.752Z,59.77
2023-05-05T19:07:00.903Z,59.55
2023-05-05T19:09:28.805Z,60.39
2023-05-05T19:11:56.233Z,59.47
2023-05-05T19:14:23.819Z,58.88
2023-05-05T19:16:51.611Z,60.06
2023-05-05T19:19:19.040Z,59.25
2023-05-05T19:21:46.554Z,59.84
2023-05-05T19:24:15.483Z,59.34
2023-05-05T19:26:44.126Z,60.39
2023-05-05T19:29:11.761Z,59.75
2023-05-05T19:31:39.243Z,59.46
2023-05-05T19:34:07.009Z,59.96
2023-05-05T19:36:35.301Z,59.60
2023-05-05T19:39:04.068Z,60.80
2023-05-05T19:41:35.154Z,60.52
2023-05-05T19:44:02.968Z,59.39
2023-05-05T19:46:30.431Z,59.99
2023-05-05T19:48:57.961Z,58.94
2023-05-05T19:51:25.388Z,59.21
2023-05-05T19:53:52.806Z,59.01
2023-05-05T19:56:21.583Z,59.38
2023-05-05T19:58:58.816Z,60.84
2023-05-05T20:01:26.902Z,62.96
2023-05-05T20:03:56.142Z,63.67
2023-05-05T20:06:24.436Z,67.58
2023-05-05T20:08:52.237Z,68.62
2023-05-05T20:11:21.263Z,69.11
2023-05-05T20:13:50.042Z,68.29
2023-05-05T20:16:19.373Z,69.20
2023-05-05T20:18:46.875Z,68.16
2023-05-05T20:21:14.485Z,68.57
2023-05-05T20:23:42.795Z,66.20
2023-05-05T20:26:10.563Z,66.26
2023-05-05T20:28:39.133Z,66.68
2023-05-05T20:31:07.039Z,66.26
2023-05-05T20:33:35.857Z,65.47
2023-05-05T20:36:03.360Z,64.33
2023-05-05T20:38:30.800Z,63.43
2023-05-05T20:40:58.230Z,62.80
2023-05-05T20:43:26.279Z,63.54
2023-05-05T20:45:53.908Z,64.06
2023-05-05T20:48:21.389Z,64.19
2023-05-05T20:50:51.101Z,63.16
2023-05-05T20:53:20.801Z,63.55
2023-05-05T20:55:49.743Z,63.30
2023-05-05T20:58:17.434Z,64.26
2023-05-05T21:00:45.000Z,63.23
2023-05-05T21:03:12.578Z,62.94
2023-05-05T21:05:40.912Z,63.00
2023-05-05T21:08:09.940Z,62.27
2023-05-05T21:10:37.599Z,62.98
2023-05-05T21:13:05.097Z,62.89
2023-05-05T21:15:33.295Z,62.55
2023-05-05T21:18:02.081Z,62.23
2023-05-05T21:20:29.724Z,62.64
2023-05-05T21:22:57.493Z,62.60
2023-05-05T21:25:26.886Z,61.51
2023-05-05T21:27:56.434Z,61.86
2023-05-05T21:30:24.687Z,61.86
2023-05-05T21:32:53.487Z,62.45
2023-05-05T21:35:21.073Z,62.34
2023-05-05T21:37:49.599Z,62.90
2023-05-05T21:40:19.009Z,62.51
2023-05-05T21:42:47.798Z,62.11
2023-05-05T21:45:15.258Z,62.54
2023-05-05T21:47:45.193Z,62.97
2023-05-05T21:50:13.377Z,63.69
2023-05-05T21:52:41.366Z,62.10
2023-05-05T21:55:11.046Z,62.70
2023-05-05T21:57:38.479Z,61.57
2023-05-05T22:00:09.202Z,61.38
2023-05-05T22:02:36.987Z,62.21
2023-05-05T22:05:05.029Z,62.22
2023-05-05T22:07:33.094Z,62.51
2023-05-05T22:10:01.622Z,62.29
2023-05-05T22:12:29.126Z,62.54
2023-05-05T22:14:56.623Z,64.07
2023-05-05T22:17:25.401Z,63.93
2023-05-05T22:19:52.892Z,63.81
2023-05-05T22:22:20.658Z,64.08
2023-05-05T22:24:48.131Z,67.17
2023-05-05T22:27:15.829Z,65.41
2023-05-05T22:29:43.314Z,66.30
2023-05-05T22:32:11.276Z,67.97
2023-05-05T22:34:40.052Z,68.69
2023-05-05T22:37:07.454Z,66.58
2023-05-05T22:39:34.971Z,70.25
2023-05-05T22:42:03.686Z,70.57
2023-05-05T22:44:31.184Z,72.81
2023-05-05T22:46:58.738Z,68.68
2023-05-05T22:49:26.388Z,70.80
2023-05-05T22:51:55.341Z,72.44
2023-05-05T22:54:22.774Z,69.74
2023-05-05T22:56:50.910Z,69.86
2023-05-05T22:59:18.273Z,69.85
2023-05-05T23:01:45.690Z,68.58
2023-05-05T23:04:13.207Z,67.97
2023-05-05T23:06:41.329Z,69.78
2023-05-05T23:09:10.319Z,69.56
2023-05-05T23:11:37.745Z,70.16
2023-05-05T23:14:05.307Z,68.75
2023-05-05T23:16:32.754Z,68.90
2023-05-05T23:19:00.329Z,71.84
2023-05-05T23:21:28.420Z,72.77
2023-05-05T23:23:56.759Z,72.59
2023-05-05T23:26:25.769Z,73.51
2023-05-05T23:28:53.201Z,74.77
2023-05-05T23:31:20.633Z,76.47
2023-05-05T23:33:48.071Z,76.18
2023-05-05T23:36:15.459Z,77.00
2023-05-05T23:38:42.838Z,78.88
2023-05-05T23:41:10.254Z,79.17
2023-05-05T23:43:39.004Z,76.97
2023-05-05T23:46:06.474Z,77.65
2023-05-05T23:48:34.043Z,76.42
2023-05-05T23:51:01.449Z,74.80
2023-05-05T23:53:28.865Z,76.99
2023-05-05T23:55:56.613Z,76.77
2023-05-05T23:58:23.982Z,76.53
